KUNV/SCE METAR and TAF weather

Enter ICAO airport designator
Station Type Date Time Source
KUNV METAR 2019/08/24 06:35 UTC NOAA

KUNV 240635Z AUTO 00000KT 10SM BKN080 BKN090 15/13 A3018 RMK AO2 T01450125


Station Type Date Time Source
KUNV Decoded METAR 2019/08/24 06:35 UTC NOAA

Station name not available
Aug 24, 2019 - 02:35 AM EDT / 2019.08.24 0635 UTC
Wind: Calm:0
Visibility: 10 mile(s):0
Sky conditions: mostly cloudy
Temperature: 58.1 F (14.5 C)
Dew Point: 54.5 F (12.5 C)
Relative Humidity: 87%
Pressure (altimeter): 30.18 in. Hg (1022 hPa)
ob: KUNV 240635Z AUTO 00000KT 10SM BKN080 BKN090 15/13 A3018 RMK AO2 T01450125
cycle: 6

Station Type Date Time Source
KUNV TAF 2019/08/24 06:42 UTC NOAA

TAF KUNV 240541Z 2406/2506 04003KT P6SM SCT070
FM241600 05008KT P6SM SCT040
FM242200 06004KT P6SM SKC

Example: see airport list